DLH9MF EDDF-LIPE
Flight info
| Callsign | DLH9MF |
|---|---|
| Flight time | 0h 56m |
| Altitude | 33000 |
| Route | ANEKI2L/18 ANEKI Y163 NATOR DCT TRA/N0407F310 DCT ARGAX DCT RESIA DCT ATPED DCT TAGIP DCT MOVOR DCT ADOSA/N0340F190 M738 BENUS |
| Aircraft | A320/M-SDE3FGHIRWY/LB1 |
Departure
| Time | 2026-05-07 15:05 |
|---|---|
| Airport | Frankfurt Main Airport (EDDF) |
Arrival
| Time | 2026-05-07 16:01 |
|---|---|
| Airport | Bologna Guglielmo Marconi Airport (LIPE) |
| Time | Latitude | Longitude | Altitude | Speed | Heading |
|---|---|---|---|---|---|
| 2026-05-07 14:39 | 50.05029 | 8.58531 | 360 ft | 0 kts | 339° |
| 2026-05-07 14:53 | 50.05022 | 8.58535 | 359 ft | 4 kts | 339° |
| 2026-05-07 14:53 | 50.04997 | 8.58549 | 362 ft | 4 kts | 339° |
| 2026-05-07 14:53 | 50.04971 | 8.58564 | 363 ft | 4 kts | 339° |
| 2026-05-07 14:53 | 50.04951 | 8.58577 | 364 ft | 4 kts | 328° |
| 2026-05-07 14:54 | 50.04937 | 8.58602 | 363 ft | 4 kts | 265° |
| 2026-05-07 14:54 | 50.04943 | 8.58640 | 359 ft | 4 kts | 250° |
| 2026-05-07 14:54 | 50.04953 | 8.58679 | 362 ft | 4 kts | 250° |
| 2026-05-07 14:54 | 50.04962 | 8.58718 | 363 ft | 4 kts | 250° |
| 2026-05-07 14:55 | 50.04967 | 8.58739 | 363 ft | 0 kts | 249° |
| 2026-05-07 14:57 | 50.04961 | 8.58716 | 360 ft | 5 kts | 250° |
| 2026-05-07 14:57 | 50.04940 | 8.58627 | 362 ft | 12 kts | 250° |
| 2026-05-07 14:57 | 50.04905 | 8.58477 | 360 ft | 18 kts | 250° |
| 2026-05-07 14:57 | 50.04856 | 8.58270 | 361 ft | 23 kts | 249° |
| 2026-05-07 14:58 | 50.04793 | 8.58014 | 362 ft | 27 kts | 245° |
| 2026-05-07 14:58 | 50.04685 | 8.57795 | 364 ft | 26 kts | 254° |
| 2026-05-07 14:58 | 50.04619 | 8.57528 | 360 ft | 27 kts | 249° |
| 2026-05-07 14:58 | 50.04559 | 8.57278 | 358 ft | 21 kts | 249° |
| 2026-05-07 14:59 | 50.04513 | 8.57085 | 364 ft | 14 kts | 250° |
| 2026-05-07 14:59 | 50.04507 | 8.57058 | 360 ft | 0 kts | 250° |
| 2026-05-07 14:59 | 50.04506 | 8.57056 | 359 ft | 1 kts | 250° |
| 2026-05-07 15:00 | 50.04491 | 8.56995 | 360 ft | 12 kts | 249° |
| 2026-05-07 15:00 | 50.04452 | 8.56833 | 361 ft | 21 kts | 249° |
| 2026-05-07 15:00 | 50.04389 | 8.56573 | 360 ft | 30 kts | 249° |
| 2026-05-07 15:00 | 50.04315 | 8.56267 | 358 ft | 31 kts | 249° |
| 2026-05-07 15:01 | 50.04244 | 8.55974 | 360 ft | 29 kts | 249° |
| 2026-05-07 15:01 | 50.04174 | 8.55678 | 355 ft | 30 kts | 250° |
| 2026-05-07 15:01 | 50.04102 | 8.55373 | 354 ft | 30 kts | 250° |
| 2026-05-07 15:01 | 50.04032 | 8.55072 | 356 ft | 30 kts | 250° |
| 2026-05-07 15:02 | 50.03959 | 8.54766 | 356 ft | 31 kts | 250° |
| 2026-05-07 15:02 | 50.03881 | 8.54449 | 350 ft | 32 kts | 248° |
| 2026-05-07 15:02 | 50.03782 | 8.54137 | 347 ft | 32 kts | 244° |
| 2026-05-07 15:02 | 50.03701 | 8.53811 | 347 ft | 32 kts | 249° |
| 2026-05-07 15:03 | 50.03620 | 8.53485 | 338 ft | 30 kts | 250° |
| 2026-05-07 15:03 | 50.03545 | 8.53172 | 334 ft | 31 kts | 249° |
| 2026-05-07 15:03 | 50.03467 | 8.52854 | 333 ft | 32 kts | 249° |
| 2026-05-07 15:03 | 50.03402 | 8.52608 | 333 ft | 16 kts | 232° |
| 2026-05-07 15:04 | 50.03315 | 8.52594 | 336 ft | 12 kts | 178° |
| 2026-05-07 15:04 | 50.03193 | 8.52596 | 336 ft | 37 kts | 180° |
| 2026-05-07 15:04 | 50.02667 | 8.52600 | 332 ft | 110 kts | 180° |
| 2026-05-07 15:04 | 50.01708 | 8.52608 | 387 ft | 159 kts | 181° |
| 2026-05-07 15:05 | 50.00615 | 8.52633 | 1150 ft | 157 kts | 180° |
| 2026-05-07 15:05 | 49.99489 | 8.52686 | 1804 ft | 171 kts | 177° |
| 2026-05-07 15:05 | 49.98223 | 8.52770 | 2314 ft | 193 kts | 178° |
| 2026-05-07 15:05 | 49.96801 | 8.52868 | 2784 ft | 216 kts | 178° |
| 2026-05-07 15:06 | 49.95239 | 8.52975 | 3378 ft | 232 kts | 178° |
| 2026-05-07 15:06 | 49.93595 | 8.53091 | 3893 ft | 239 kts | 178° |
| 2026-05-07 15:06 | 49.91943 | 8.53209 | 3993 ft | 238 kts | 178° |
| 2026-05-07 15:06 | 49.90266 | 8.53327 | 4645 ft | 241 kts | 179° |
| 2026-05-07 15:07 | 49.88592 | 8.53443 | 5713 ft | 240 kts | 179° |
| 2026-05-07 15:07 | 49.86916 | 8.53557 | 6652 ft | 243 kts | 179° |
| 2026-05-07 15:07 | 49.85209 | 8.53673 | 7533 ft | 247 kts | 179° |
| 2026-05-07 15:07 | 49.83483 | 8.53791 | 8431 ft | 250 kts | 179° |
| 2026-05-07 15:08 | 49.81736 | 8.53908 | 9356 ft | 253 kts | 179° |
| 2026-05-07 15:08 | 49.79965 | 8.54023 | 10258 ft | 256 kts | 179° |
| 2026-05-07 15:08 | 49.78171 | 8.54121 | 11083 ft | 260 kts | 183° |
| 2026-05-07 15:08 | 49.76311 | 8.53921 | 11578 ft | 279 kts | 186° |
| 2026-05-07 15:09 | 49.74297 | 8.53651 | 11917 ft | 303 kts | 186° |
| 2026-05-07 15:09 | 49.72116 | 8.53351 | 12224 ft | 327 kts | 186° |
| 2026-05-07 15:09 | 49.69802 | 8.53034 | 12802 ft | 339 kts | 186° |
| 2026-05-07 15:09 | 49.67433 | 8.52715 | 13567 ft | 344 kts | 186° |
| 2026-05-07 15:10 | 49.65027 | 8.52397 | 14299 ft | 349 kts | 186° |
| 2026-05-07 15:10 | 49.62596 | 8.52077 | 15034 ft | 352 kts | 186° |
| 2026-05-07 15:10 | 49.60146 | 8.51755 | 15764 ft | 355 kts | 186° |
| 2026-05-07 15:10 | 49.57671 | 8.51432 | 16502 ft | 358 kts | 186° |
| 2026-05-07 15:11 | 49.55177 | 8.51108 | 17236 ft | 361 kts | 186° |
| 2026-05-07 15:11 | 49.52668 | 8.50758 | 17959 ft | 364 kts | 188° |
| 2026-05-07 15:11 | 49.50145 | 8.50241 | 18632 ft | 367 kts | 191° |
| 2026-05-07 15:11 | 49.47619 | 8.49596 | 19254 ft | 369 kts | 192° |
| 2026-05-07 15:12 | 49.45079 | 8.48887 | 19873 ft | 372 kts | 192° |
| 2026-05-07 15:12 | 49.42517 | 8.48164 | 20483 ft | 375 kts | 193° |
| 2026-05-07 15:12 | 49.39941 | 8.47448 | 21116 ft | 378 kts | 192° |
| 2026-05-07 15:12 | 49.37347 | 8.46743 | 21717 ft | 380 kts | 192° |
| 2026-05-07 15:13 | 49.34729 | 8.46050 | 22298 ft | 383 kts | 192° |
| 2026-05-07 15:13 | 49.32088 | 8.45368 | 22869 ft | 386 kts | 192° |
| 2026-05-07 15:13 | 49.29458 | 8.44698 | 23429 ft | 389 kts | 192° |
| 2026-05-07 15:13 | 49.26741 | 8.44005 | 23928 ft | 392 kts | 192° |
| 2026-05-07 15:14 | 49.24073 | 8.43321 | 24374 ft | 395 kts | 192° |
| 2026-05-07 15:14 | 49.21349 | 8.42621 | 24819 ft | 398 kts | 192° |
| 2026-05-07 15:14 | 49.18616 | 8.41920 | 25299 ft | 400 kts | 192° |
| 2026-05-07 15:14 | 49.15863 | 8.41217 | 25751 ft | 402 kts | 192° |
| 2026-05-07 15:15 | 49.13094 | 8.40509 | 26192 ft | 405 kts | 192° |
| 2026-05-07 15:15 | 49.11211 | 8.40028 | 26485 ft | 407 kts | 192° |
| 2026-05-07 15:15 | 49.08413 | 8.39316 | 26898 ft | 409 kts | 192° |
| 2026-05-07 15:15 | 49.05595 | 8.38598 | 27329 ft | 412 kts | 192° |
| 2026-05-07 15:16 | 49.02762 | 8.37874 | 27751 ft | 415 kts | 192° |
| 2026-05-07 15:16 | 48.99906 | 8.37148 | 28157 ft | 417 kts | 192° |
| 2026-05-07 15:16 | 48.97034 | 8.36419 | 28572 ft | 420 kts | 192° |
| 2026-05-07 15:16 | 48.94141 | 8.35683 | 28978 ft | 422 kts | 192° |
| 2026-05-07 15:17 | 48.91234 | 8.34948 | 29392 ft | 425 kts | 192° |
| 2026-05-07 15:17 | 48.88306 | 8.34209 | 29798 ft | 428 kts | 192° |
| 2026-05-07 15:17 | 48.85360 | 8.33463 | 30177 ft | 431 kts | 192° |
| 2026-05-07 15:17 | 48.82395 | 8.32711 | 30489 ft | 433 kts | 192° |
| 2026-05-07 15:18 | 48.79411 | 8.31951 | 30792 ft | 436 kts | 192° |
| 2026-05-07 15:18 | 48.76413 | 8.31191 | 31086 ft | 438 kts | 192° |
| 2026-05-07 15:18 | 48.73403 | 8.30433 | 31396 ft | 440 kts | 192° |
| 2026-05-07 15:18 | 48.70410 | 8.29683 | 31680 ft | 442 kts | 192° |
| 2026-05-07 15:19 | 48.67372 | 8.28927 | 32051 ft | 443 kts | 192° |
| 2026-05-07 15:19 | 48.64297 | 8.28162 | 32454 ft | 442 kts | 192° |
| 2026-05-07 15:19 | 48.61301 | 8.27412 | 32836 ft | 442 kts | 192° |
| 2026-05-07 15:19 | 48.58268 | 8.26653 | 33218 ft | 442 kts | 192° |
| 2026-05-07 15:20 | 48.55234 | 8.25928 | 33602 ft | 443 kts | 189° |
| 2026-05-07 15:20 | 48.52105 | 8.25792 | 33986 ft | 446 kts | 178° |
| 2026-05-07 15:20 | 48.49064 | 8.26488 | 34309 ft | 450 kts | 168° |
| 2026-05-07 15:20 | 48.46096 | 8.28018 | 34634 ft | 453 kts | 158° |
| 2026-05-07 15:21 | 48.43336 | 8.30341 | 34919 ft | 456 kts | 148° |
| 2026-05-07 15:21 | 48.40729 | 8.33055 | 35021 ft | 454 kts | 147° |
| 2026-05-07 15:21 | 48.35611 | 8.38391 | 35037 ft | 444 kts | 147° |
| 2026-05-07 15:22 | 48.30527 | 8.43661 | 35038 ft | 444 kts | 148° |
| 2026-05-07 15:22 | 48.25443 | 8.48910 | 35038 ft | 444 kts | 148° |
| 2026-05-07 15:23 | 48.20355 | 8.54155 | 35035 ft | 443 kts | 148° |
| 2026-05-07 15:23 | 48.15273 | 8.59380 | 35030 ft | 443 kts | 148° |
| 2026-05-07 15:24 | 48.10167 | 8.64619 | 35023 ft | 451 kts | 148° |
| 2026-05-07 15:24 | 48.04897 | 8.70002 | 35032 ft | 465 kts | 148° |
| 2026-05-07 15:25 | 47.99528 | 8.75476 | 35027 ft | 468 kts | 148° |
| 2026-05-07 15:25 | 47.94148 | 8.80958 | 35026 ft | 468 kts | 148° |
| 2026-05-07 15:26 | 47.88769 | 8.86434 | 35027 ft | 468 kts | 148° |
| 2026-05-07 15:26 | 47.83376 | 8.91895 | 35027 ft | 469 kts | 148° |
| 2026-05-07 15:27 | 47.77977 | 8.97349 | 35023 ft | 469 kts | 149° |
| 2026-05-07 15:27 | 47.72572 | 9.02800 | 35022 ft | 469 kts | 149° |
| 2026-05-07 15:28 | 47.67173 | 9.08236 | 35024 ft | 469 kts | 149° |
| 2026-05-07 15:28 | 47.61769 | 9.13652 | 35005 ft | 469 kts | 149° |
| 2026-05-07 15:29 | 47.56360 | 9.19059 | 35008 ft | 470 kts | 149° |
| 2026-05-07 15:29 | 47.50935 | 9.24471 | 35011 ft | 470 kts | 149° |
| 2026-05-07 15:30 | 47.45503 | 9.29881 | 35016 ft | 471 kts | 149° |
| 2026-05-07 15:30 | 47.40063 | 9.35282 | 34997 ft | 472 kts | 149° |
| 2026-05-07 15:31 | 47.34599 | 9.40685 | 35000 ft | 474 kts | 149° |
| 2026-05-07 15:31 | 47.29115 | 9.46092 | 35003 ft | 475 kts | 149° |
| 2026-05-07 15:32 | 47.23621 | 9.51516 | 35005 ft | 475 kts | 149° |
| 2026-05-07 15:32 | 47.18121 | 9.56927 | 35000 ft | 476 kts | 150° |
| 2026-05-07 15:33 | 47.12595 | 9.62335 | 34998 ft | 477 kts | 150° |
| 2026-05-07 15:33 | 47.07073 | 9.67739 | 35017 ft | 477 kts | 150° |
| 2026-05-07 15:34 | 47.01538 | 9.73134 | 35013 ft | 477 kts | 150° |
| 2026-05-07 15:34 | 46.96003 | 9.78509 | 34997 ft | 477 kts | 150° |
| 2026-05-07 15:35 | 46.90470 | 9.83878 | 35008 ft | 478 kts | 150° |
| 2026-05-07 15:35 | 46.84924 | 9.89254 | 35003 ft | 478 kts | 151° |
| 2026-05-07 15:36 | 46.79363 | 9.94623 | 35010 ft | 479 kts | 151° |
| 2026-05-07 15:36 | 46.73800 | 9.99976 | 34992 ft | 479 kts | 151° |
| 2026-05-07 15:37 | 46.68228 | 10.05335 | 34999 ft | 480 kts | 151° |
| 2026-05-07 15:37 | 46.62642 | 10.10683 | 34989 ft | 480 kts | 152° |
| 2026-05-07 15:38 | 46.57057 | 10.16018 | 34998 ft | 481 kts | 152° |
| 2026-05-07 15:38 | 46.51460 | 10.21359 | 34994 ft | 481 kts | 152° |
| 2026-05-07 15:39 | 46.45862 | 10.26678 | 34981 ft | 481 kts | 152° |
| 2026-05-07 15:39 | 46.40267 | 10.31987 | 34974 ft | 481 kts | 152° |
| 2026-05-07 15:40 | 46.34659 | 10.37293 | 34986 ft | 482 kts | 152° |
| 2026-05-07 15:40 | 46.29042 | 10.42590 | 35009 ft | 482 kts | 152° |
| 2026-05-07 15:41 | 46.23430 | 10.47875 | 35008 ft | 482 kts | 152° |
| 2026-05-07 15:41 | 46.17810 | 10.53155 | 35010 ft | 482 kts | 152° |
| 2026-05-07 15:42 | 46.12191 | 10.58419 | 35020 ft | 482 kts | 152° |
| 2026-05-07 15:42 | 46.06572 | 10.63663 | 35001 ft | 481 kts | 153° |
| 2026-05-07 15:43 | 46.00945 | 10.68907 | 35012 ft | 482 kts | 153° |
| 2026-05-07 15:43 | 45.95355 | 10.74108 | 35004 ft | 482 kts | 153° |
| 2026-05-07 15:44 | 45.89723 | 10.79342 | 34992 ft | 481 kts | 153° |
| 2026-05-07 15:44 | 45.86924 | 10.81939 | 34557 ft | 479 kts | 153° |
| 2026-05-07 15:44 | 45.84113 | 10.84543 | 33745 ft | 481 kts | 154° |
| 2026-05-07 15:45 | 45.81295 | 10.87144 | 32849 ft | 483 kts | 154° |
| 2026-05-07 15:45 | 45.78467 | 10.89750 | 32116 ft | 484 kts | 154° |
| 2026-05-07 15:45 | 45.75629 | 10.92365 | 31472 ft | 487 kts | 153° |
| 2026-05-07 15:45 | 45.72773 | 10.94990 | 30849 ft | 488 kts | 154° |
| 2026-05-07 15:46 | 45.67004 | 11.00193 | 29537 ft | 489 kts | 158° |
| 2026-05-07 15:46 | 45.63940 | 11.02197 | 28830 ft | 481 kts | 166° |
| 2026-05-07 15:46 | 45.60755 | 11.03511 | 28111 ft | 473 kts | 175° |
| 2026-05-07 15:47 | 45.57518 | 11.04316 | 27399 ft | 473 kts | 176° |
| 2026-05-07 15:47 | 45.54261 | 11.05097 | 26666 ft | 474 kts | 176° |
| 2026-05-07 15:47 | 45.51002 | 11.05882 | 25953 ft | 476 kts | 176° |
| 2026-05-07 15:47 | 45.47721 | 11.06673 | 25257 ft | 478 kts | 175° |
| 2026-05-07 15:48 | 45.44433 | 11.07466 | 24572 ft | 480 kts | 175° |
| 2026-05-07 15:48 | 45.41148 | 11.08261 | 23858 ft | 477 kts | 175° |
| 2026-05-07 15:48 | 45.37893 | 11.09058 | 23037 ft | 472 kts | 174° |
| 2026-05-07 15:48 | 45.34663 | 11.09851 | 22159 ft | 467 kts | 174° |
| 2026-05-07 15:49 | 45.31469 | 11.10632 | 21305 ft | 463 kts | 174° |
| 2026-05-07 15:49 | 45.28309 | 11.11400 | 20492 ft | 458 kts | 174° |
| 2026-05-07 15:49 | 45.25183 | 11.12151 | 19694 ft | 453 kts | 174° |
| 2026-05-07 15:49 | 45.22089 | 11.12886 | 18914 ft | 449 kts | 174° |
| 2026-05-07 15:50 | 45.19019 | 11.13613 | 18136 ft | 445 kts | 173° |
| 2026-05-07 15:50 | 45.15977 | 11.14336 | 17281 ft | 441 kts | 173° |
| 2026-05-07 15:50 | 45.12956 | 11.15056 | 16441 ft | 437 kts | 173° |
| 2026-05-07 15:50 | 45.09971 | 11.15769 | 15616 ft | 434 kts | 173° |
| 2026-05-07 15:51 | 45.07005 | 11.16479 | 14830 ft | 430 kts | 173° |
| 2026-05-07 15:51 | 45.04078 | 11.17181 | 14138 ft | 424 kts | 173° |
| 2026-05-07 15:51 | 45.01199 | 11.17871 | 13322 ft | 415 kts | 172° |
| 2026-05-07 15:51 | 44.98373 | 11.18544 | 12499 ft | 409 kts | 172° |
| 2026-05-07 15:52 | 44.95587 | 11.19202 | 11680 ft | 403 kts | 172° |
| 2026-05-07 15:52 | 44.92842 | 11.19847 | 10904 ft | 391 kts | 172° |
| 2026-05-07 15:52 | 44.90293 | 11.20452 | 10832 ft | 352 kts | 172° |
| 2026-05-07 15:52 | 44.87999 | 11.20982 | 10827 ft | 316 kts | 176° |
| 2026-05-07 15:53 | 44.85904 | 11.20877 | 10609 ft | 291 kts | 194° |
| 2026-05-07 15:53 | 44.84048 | 11.19938 | 10097 ft | 280 kts | 211° |
| 2026-05-07 15:53 | 44.82526 | 11.18293 | 9441 ft | 275 kts | 228° |
| 2026-05-07 15:53 | 44.81391 | 11.16148 | 8727 ft | 273 kts | 237° |
| 2026-05-07 15:54 | 44.80693 | 11.14678 | 8247 ft | 272 kts | 236° |
| 2026-05-07 15:54 | 44.79638 | 11.12482 | 7635 ft | 270 kts | 236° |
| 2026-05-07 15:54 | 44.78575 | 11.10291 | 7134 ft | 271 kts | 236° |
| 2026-05-07 15:54 | 44.77505 | 11.08095 | 6741 ft | 270 kts | 236° |
| 2026-05-07 15:55 | 44.76465 | 11.05956 | 6515 ft | 262 kts | 236° |
| 2026-05-07 15:55 | 44.75462 | 11.03895 | 6407 ft | 249 kts | 232° |
| 2026-05-07 15:55 | 44.74155 | 11.02417 | 6249 ft | 239 kts | 202° |
| 2026-05-07 15:55 | 44.72539 | 11.02018 | 5949 ft | 237 kts | 182° |
| 2026-05-07 15:56 | 44.70892 | 11.02034 | 5607 ft | 236 kts | 179° |
| 2026-05-07 15:56 | 44.69250 | 11.02091 | 5268 ft | 236 kts | 179° |
| 2026-05-07 15:56 | 44.67617 | 11.02142 | 4936 ft | 235 kts | 179° |
| 2026-05-07 15:56 | 44.65985 | 11.02179 | 4585 ft | 234 kts | 179° |
| 2026-05-07 15:57 | 44.64373 | 11.02533 | 4159 ft | 235 kts | 158° |
| 2026-05-07 15:57 | 44.62978 | 11.03653 | 3897 ft | 231 kts | 138° |
| 2026-05-07 15:57 | 44.61960 | 11.05368 | 3623 ft | 228 kts | 118° |
| 2026-05-07 15:57 | 44.61247 | 11.07344 | 3336 ft | 226 kts | 115° |
| 2026-05-07 15:58 | 44.60559 | 11.09282 | 3040 ft | 218 kts | 116° |
| 2026-05-07 15:58 | 44.59895 | 11.11143 | 2763 ft | 210 kts | 115° |
| 2026-05-07 15:58 | 44.59252 | 11.12943 | 2496 ft | 203 kts | 115° |
| 2026-05-07 15:58 | 44.58636 | 11.14664 | 2242 ft | 192 kts | 114° |
| 2026-05-07 15:59 | 44.58052 | 11.16297 | 1977 ft | 184 kts | 115° |
| 2026-05-07 15:59 | 44.57502 | 11.17830 | 1753 ft | 169 kts | 114° |
| 2026-05-07 15:59 | 44.56993 | 11.19250 | 1507 ft | 156 kts | 114° |
| 2026-05-07 15:59 | 44.56531 | 11.20538 | 1303 ft | 142 kts | 112° |
| 2026-05-07 16:00 | 44.56093 | 11.21758 | 1092 ft | 139 kts | 113° |
| 2026-05-07 16:00 | 44.55665 | 11.22944 | 878 ft | 134 kts | 114° |
| 2026-05-07 16:00 | 44.55242 | 11.24129 | 665 ft | 136 kts | 112° |
| 2026-05-07 16:00 | 44.54823 | 11.25315 | 518 ft | 133 kts | 114° |
| 2026-05-07 16:01 | 44.54423 | 11.26424 | 349 ft | 123 kts | 117° |
| 2026-05-07 16:01 | 44.54046 | 11.27472 | 177 ft | 122 kts | 115° |
| 2026-05-07 16:01 | 44.53677 | 11.28493 | 132 ft | 106 kts | 116° |
| 2026-05-07 16:01 | 44.53450 | 11.29135 | 127 ft | 31 kts | 117° |
| 2026-05-07 16:02 | 44.53363 | 11.29377 | 131 ft | 27 kts | 117° |
| 2026-05-07 16:02 | 44.53281 | 11.29567 | 129 ft | 18 kts | 126° |
| 2026-05-07 16:02 | 44.53214 | 11.29552 | 129 ft | 11 kts | 258° |
| 2026-05-07 16:02 | 44.53210 | 11.29448 | 131 ft | 10 kts | 268° |
| 2026-05-07 16:03 | 44.53205 | 11.29351 | 126 ft | 10 kts | 266° |
| 2026-05-07 16:03 | 44.53209 | 11.29240 | 126 ft | 15 kts | 290° |
| 2026-05-07 16:03 | 44.53281 | 11.29052 | 128 ft | 27 kts | 296° |
| 2026-05-07 16:03 | 44.53355 | 11.28833 | 129 ft | 18 kts | 279° |
| 2026-05-07 16:04 | 44.53331 | 11.28805 | 130 ft | 5 kts | 147° |
| 2026-05-07 16:04 | 44.53292 | 11.28831 | 130 ft | 6 kts | 194° |
| 2026-05-07 16:04 | 44.53259 | 11.28806 | 130 ft | 4 kts | 207° |